sensor_id;sensor_type;location;lat;lon;timestamp;pressure;altitude;pressure_sealevel;temperature;humidity
29371;BME280;16357;52.188;7.838;2023-06-22T00:02:25;101183.47;;;23.22;49.45
29371;BME280;16357;52.188;7.838;2023-06-22T00:04:52;101177.38;;;23.20;49.21
29371;BME280;16357;52.188;7.838;2023-06-22T00:07:18;101179.72;;;23.17;49.16
29371;BME280;16357;52.188;7.838;2023-06-22T00:09:44;101178.28;;;23.14;49.29
29371;BME280;16357;52.188;7.838;2023-06-22T00:12:11;101174.97;;;23.12;49.58
29371;BME280;16357;52.188;7.838;2023-06-22T00:14:37;101176.25;;;23.10;49.52
29371;BME280;16357;52.188;7.838;2023-06-22T00:17:04;101174.81;;;23.07;50.18
29371;BME280;16357;52.188;7.838;2023-06-22T00:19:30;101149.78;;;23.04;49.70
29371;BME280;16357;52.188;7.838;2023-06-22T00:21:57;101163.72;;;23.02;49.91
29371;BME280;16357;52.188;7.838;2023-06-22T00:24:26;101155.97;;;22.99;49.89
29371;BME280;16357;52.188;7.838;2023-06-22T00:26:52;101145.41;;;22.96;49.87
29371;BME280;16357;52.188;7.838;2023-06-22T00:29:19;101145.88;;;22.93;50.10
29371;BME280;16357;52.188;7.838;2023-06-22T00:31:45;101138.13;;;22.90;50.16
29371;BME280;16357;52.188;7.838;2023-06-22T00:34:12;101137.78;;;22.86;50.22
29371;BME280;16357;52.188;7.838;2023-06-22T00:36:38;101150.00;;;22.84;50.21
29371;BME280;16357;52.188;7.838;2023-06-22T00:39:07;101138.66;;;22.80;50.49
29371;BME280;16357;52.188;7.838;2023-06-22T00:41:34;101136.38;;;22.77;50.43
29371;BME280;16357;52.188;7.838;2023-06-22T00:44:00;101133.91;;;22.75;50.64
29371;BME280;16357;52.188;7.838;2023-06-22T00:46:27;101131.63;;;22.72;50.51
29371;BME280;16357;52.188;7.838;2023-06-22T00:48:54;101129.31;;;22.69;50.64
29371;BME280;16357;52.188;7.838;2023-06-22T00:51:23;101139.88;;;22.66;50.59
29371;BME280;16357;52.188;7.838;2023-06-22T00:53:51;101136.53;;;22.64;50.71
29371;BME280;16357;52.188;7.838;2023-06-22T00:56:20;101127.97;;;22.60;50.66
29371;BME280;16357;52.188;7.838;2023-06-22T00:58:51;101130.06;;;22.58;50.98
29371;BME280;16357;52.188;7.838;2023-06-22T01:01:20;101123.16;;;22.55;51.14
29371;BME280;16357;52.188;7.838;2023-06-22T01:03:50;101131.59;;;22.54;50.83
29371;BME280;16357;52.188;7.838;2023-06-22T01:06:23;101125.53;;;22.52;50.84
29371;BME280;16357;52.188;7.838;2023-06-22T01:09:11;101137.50;;;22.51;50.58
29371;BME280;16357;52.188;7.838;2023-06-22T01:11:45;101130.59;;;22.48;50.77
29371;BME280;16357;52.188;7.838;2023-06-22T01:14:16;101122.63;;;22.47;50.87
29371;BME280;16357;52.188;7.838;2023-06-22T01:16:45;101123.91;;;22.44;51.23
29371;BME280;16357;52.188;7.838;2023-06-22T01:19:39;101116.75;;;22.43;50.76
29371;BME280;16357;52.188;7.838;2023-06-22T01:22:10;101119.94;;;22.40;51.09
29371;BME280;16357;52.188;7.838;2023-06-22T01:24:51;101118.28;;;22.39;51.30
29371;BME280;16357;52.188;7.838;2023-06-22T01:27:50;101124.81;;;22.38;50.89
29371;BME280;16357;52.188;7.838;2023-06-22T01:30:19;101126.13;;;22.35;51.46
29371;BME280;16357;52.188;7.838;2023-06-22T01:32:47;101129.06;;;22.34;51.47
29371;BME280;16357;52.188;7.838;2023-06-22T01:35:15;101124.88;;;22.31;51.52
29371;BME280;16357;52.188;7.838;2023-06-22T01:37:42;101135.81;;;22.31;51.72
29371;BME280;16357;52.188;7.838;2023-06-22T01:40:09;101131.41;;;22.30;51.87
29371;BME280;16357;52.188;7.838;2023-06-22T01:42:36;101130.78;;;22.28;51.80
29371;BME280;16357;52.188;7.838;2023-06-22T01:45:04;101126.63;;;22.26;51.86
29371;BME280;16357;52.188;7.838;2023-06-22T01:47:31;101132.28;;;22.24;52.08
29371;BME280;16357;52.188;7.838;2023-06-22T01:49:58;101124.53;;;22.21;52.14
29371;BME280;16357;52.188;7.838;2023-06-22T01:52:25;101126.44;;;22.21;52.02
29371;BME280;16357;52.188;7.838;2023-06-22T01:54:52;101126.03;;;22.17;52.14
29371;BME280;16357;52.188;7.838;2023-06-22T01:57:18;101127.91;;;22.17;52.45
29371;BME280;16357;52.188;7.838;2023-06-22T01:59:59;101130.88;;;22.15;52.73
29371;BME280;16357;52.188;7.838;2023-06-22T02:02:34;101131.94;;;22.14;52.11
29371;BME280;16357;52.188;7.838;2023-06-22T02:05:06;101129.66;;;22.11;52.20
29371;BME280;16357;52.188;7.838;2023-06-22T02:07:39;101124.41;;;22.09;52.31
29371;BME280;16357;52.188;7.838;2023-06-22T02:10:08;101138.28;;;22.08;52.57
29371;BME280;16357;52.188;7.838;2023-06-22T02:12:39;101133.03;;;22.06;52.36
29371;BME280;16357;52.188;7.838;2023-06-22T02:15:09;101132.22;;;22.06;52.38
29371;BME280;16357;52.188;7.838;2023-06-22T02:17:36;101128.88;;;22.04;52.62
29371;BME280;16357;52.188;7.838;2023-06-22T02:20:03;101131.81;;;22.02;52.67
29371;BME280;16357;52.188;7.838;2023-06-22T02:22:34;101124.69;;;22.01;52.71
29371;BME280;16357;52.188;7.838;2023-06-22T02:25:01;101124.91;;;22.00;52.68
29371;BME280;16357;52.188;7.838;2023-06-22T02:27:27;101130.59;;;21.98;52.38
29371;BME280;16357;52.188;7.838;2023-06-22T02:29:54;101117.16;;;21.97;52.94
29371;BME280;16357;52.188;7.838;2023-06-22T02:32:20;101118.44;;;21.94;53.10
29371;BME280;16357;52.188;7.838;2023-06-22T02:34:47;101118.66;;;21.92;53.08
29371;BME280;16357;52.188;7.838;2023-06-22T02:37:14;101123.50;;;21.90;53.06
29371;BME280;16357;52.188;7.838;2023-06-22T02:39:43;101120.19;;;21.88;53.16
29371;BME280;16357;52.188;7.838;2023-06-22T02:42:09;101115.75;;;21.87;53.12
29371;BME280;16357;52.188;7.838;2023-06-22T02:44:38;101124.41;;;21.84;53.09
29371;BME280;16357;52.188;7.838;2023-06-22T02:47:05;101120.00;;;21.83;53.66
29371;BME280;16357;52.188;7.838;2023-06-22T02:49:31;101124.84;;;21.81;53.55
29371;BME280;16357;52.188;7.838;2023-06-22T02:51:58;101128.66;;;21.80;53.43
29371;BME280;16357;52.188;7.838;2023-06-22T02:54:24;101132.22;;;21.81;53.49
29371;BME280;16357;52.188;7.838;2023-06-22T02:56:51;101129.47;;;21.81;53.52
29371;BME280;16357;52.188;7.838;2023-06-22T02:59:18;101134.09;;;21.80;53.71
29371;BME280;16357;52.188;7.838;2023-06-22T03:01:50;101131.59;;;21.79;53.47
29371;BME280;16357;52.188;7.838;2023-06-22T03:04:17;101133.50;;;21.78;53.66
29371;BME280;16357;52.188;7.838;2023-06-22T03:06:44;101129.94;;;21.78;53.36
29371;BME280;16357;52.188;7.838;2023-06-22T03:09:11;101127.41;;;21.76;53.92
29371;BME280;16357;52.188;7.838;2023-06-22T03:11:37;101132.88;;;21.76;53.86
29371;BME280;16357;52.188;7.838;2023-06-22T03:14:04;101129.50;;;21.74;53.57
29371;BME280;16357;52.188;7.838;2023-06-22T03:16:30;101127.84;;;21.73;53.94
29371;BME280;16357;52.188;7.838;2023-06-22T03:18:56;101121.75;;;21.71;53.82
29371;BME280;16357;52.188;7.838;2023-06-22T03:21:23;101119.03;;;21.71;53.81
29371;BME280;16357;52.188;7.838;2023-06-22T03:23:50;101121.13;;;21.69;53.88
29371;BME280;16357;52.188;7.838;2023-06-22T03:26:17;101120.31;;;21.68;53.79
29371;BME280;16357;52.188;7.838;2023-06-22T03:28:44;101120.56;;;21.67;53.95
29371;BME280;16357;52.188;7.838;2023-06-22T03:31:10;101121.59;;;21.66;54.02
29371;BME280;16357;52.188;7.838;2023-06-22T03:33:36;101123.50;;;21.65;53.99
29371;BME280;16357;52.188;7.838;2023-06-22T03:36:03;101120.75;;;21.65;53.92
29371;BME280;16357;52.188;7.838;2023-06-22T03:38:30;101122.66;;;21.65;53.87
29371;BME280;16357;52.188;7.838;2023-06-22T03:40:56;101121.81;;;21.64;53.90
29371;BME280;16357;52.188;7.838;2023-06-22T03:43:23;101129.16;;;21.64;54.03
29371;BME280;16357;52.188;7.838;2023-06-22T03:45:50;101120.38;;;21.62;53.93
29371;BME280;16357;52.188;7.838;2023-06-22T03:48:17;101120.38;;;21.62;53.96
29371;BME280;16357;52.188;7.838;2023-06-22T03:50:43;101120.38;;;21.62;54.21
29371;BME280;16357;52.188;7.838;2023-06-22T03:53:10;101121.41;;;21.61;54.20
29371;BME280;16357;52.188;7.838;2023-06-22T03:55:37;101124.13;;;21.61;54.08
29371;BME280;16357;52.188;7.838;2023-06-22T03:58:03;101115.13;;;21.60;53.89
29371;BME280;16357;52.188;7.838;2023-06-22T04:00:32;101121.41;;;21.61;54.08
29371;BME280;16357;52.188;7.838;2023-06-22T04:02:58;101123.31;;;21.60;53.74
29371;BME280;16357;52.188;7.838;2023-06-22T04:05:25;101120.59;;;21.60;53.64
29371;BME280;16357;52.188;7.838;2023-06-22T04:07:51;101121.41;;;21.61;53.89
29371;BME280;16357;52.188;7.838;2023-06-22T04:10:18;101125.84;;;21.62;53.58
29371;BME280;16357;52.188;7.838;2023-06-22T04:12:44;101121.22;;;21.62;53.28
29371;BME280;16357;52.188;7.838;2023-06-22T04:15:11;101122.03;;;21.63;53.85
29371;BME280;16357;52.188;7.838;2023-06-22T04:17:38;101129.78;;;21.66;53.79
29371;BME280;16357;52.188;7.838;2023-06-22T04:20:05;101126.00;;;21.67;53.86
29371;BME280;16357;52.188;7.838;2023-06-22T04:22:32;101114.84;;;21.68;53.67
29371;BME280;16357;52.188;7.838;2023-06-22T04:24:58;101105.38;;;21.71;53.74
29371;BME280;16357;52.188;7.838;2023-06-22T04:27:24;101108.72;;;21.73;53.40
29371;BME280;16357;52.188;7.838;2023-06-22T04:29:51;101116.47;;;21.76;52.99
29371;BME280;16357;52.188;7.838;2023-06-22T04:32:18;101109.13;;;21.77;53.68
29371;BME280;16357;52.188;7.838;2023-06-22T04:34:45;101106.78;;;21.80;53.10
29371;BME280;16357;52.188;7.838;2023-06-22T04:37:11;101103.00;;;21.81;53.31
29371;BME280;16357;52.188;7.838;2023-06-22T04:39:42;101105.28;;;21.84;53.27
29371;BME280;16357;52.188;7.838;2023-06-22T04:42:09;101106.72;;;21.87;53.34
29371;BME280;16357;52.188;7.838;2023-06-22T04:44:36;101110.09;;;21.89;53.14
29371;BME280;16357;52.188;7.838;2023-06-22T04:47:02;101096.81;;;21.92;53.13
29371;BME280;16357;52.188;7.838;2023-06-22T04:49:30;101095.53;;;21.95;53.15
29371;BME280;16357;52.188;7.838;2023-06-22T04:52:03;101106.63;;;22.00;52.92
29371;BME280;16357;52.188;7.838;2023-06-22T04:54:30;101094.41;;;22.03;52.86
29371;BME280;16357;52.188;7.838;2023-06-22T04:57:01;101102.16;;;22.06;52.94
29371;BME280;16357;52.188;7.838;2023-06-22T04:59:29;101095.19;;;22.10;52.70
29371;BME280;16357;52.188;7.838;2023-06-22T05:01:57;101094.94;;;22.11;52.77
29371;BME280;16357;52.188;7.838;2023-06-22T05:04:25;101096.41;;;22.14;52.48
29371;BME280;16357;52.188;7.838;2023-06-22T05:06:52;101094.28;;;22.16;52.73
29371;BME280;16357;52.188;7.838;2023-06-22T05:09:19;101089.44;;;22.18;52.44
29371;BME280;16357;52.188;7.838;2023-06-22T05:11:46;101084.63;;;22.20;52.38
29371;BME280;16357;52.188;7.838;2023-06-22T05:14:14;101085.25;;;22.22;52.55
29371;BME280;16357;52.188;7.838;2023-06-22T05:16:41;101085.38;;;22.27;52.52
29371;BME280;16357;52.188;7.838;2023-06-22T05:19:08;101079.22;;;22.32;52.56
29371;BME280;16357;52.188;7.838;2023-06-22T05:21:35;101093.31;;;22.35;52.47
29371;BME280;16357;52.188;7.838;2023-06-22T05:24:01;101089.03;;;22.40;52.37
29371;BME280;16357;52.188;7.838;2023-06-22T05:26:30;101091.09;;;22.44;52.18
29371;BME280;16357;52.188;7.838;2023-06-22T05:28:57;101098.63;;;22.49;52.26
29371;BME280;16357;52.188;7.838;2023-06-22T05:31:24;101086.78;;;22.55;52.40
29371;BME280;16357;52.188;7.838;2023-06-22T05:33:52;101088.59;;;22.61;51.96
29371;BME280;16357;52.188;7.838;2023-06-22T05:36:19;101086.00;;;22.66;51.78
29371;BME280;16357;52.188;7.838;2023-06-22T05:38:46;101084.25;;;22.72;51.89
29371;BME280;16357;52.188;7.838;2023-06-22T05:41:13;101091.78;;;22.76;51.88
29371;BME280;16357;52.188;7.838;2023-06-22T05:43:40;101093.00;;;22.81;51.54
29371;BME280;16357;52.188;7.838;2023-06-22T05:46:06;101089.81;;;22.84;51.56
29371;BME280;16357;52.188;7.838;2023-06-22T05:48:33;101090.44;;;22.86;51.83
29371;BME280;16357;52.188;7.838;2023-06-22T05:50:59;101089.97;;;22.89;51.62
29371;BME280;16357;52.188;7.838;2023-06-22T05:53:26;101086.75;;;22.92;51.36
29371;BME280;16357;52.188;7.838;2023-06-22T05:55:52;101090.34;;;22.92;51.45
29371;BME280;16357;52.188;7.838;2023-06-22T05:58:19;101081.66;;;22.95;51.58
29371;BME280;16357;52.188;7.838;2023-06-22T06:00:45;101085.88;;;22.98;51.45
29371;BME280;16357;52.188;7.838;2023-06-22T06:03:12;101078.28;;;23.00;51.57
29371;BME280;16357;52.188;7.838;2023-06-22T06:05:43;101094.22;;;23.03;51.42
29371;BME280;16357;52.188;7.838;2023-06-22T06:08:11;101085.78;;;23.05;51.34
29371;BME280;16357;52.188;7.838;2023-06-22T06:10:38;101085.31;;;23.08;51.48
29371;BME280;16357;52.188;7.838;2023-06-22T06:13:05;101080.22;;;23.11;51.62
29371;BME280;16357;52.188;7.838;2023-06-22T06:15:33;101078.69;;;23.15;51.66
29371;BME280;16357;52.188;7.838;2023-06-22T06:18:00;101084.31;;;23.20;51.63
29371;BME280;16357;52.188;7.838;2023-06-22T06:20:28;101093.50;;;23.26;51.33
29371;BME280;16357;52.188;7.838;2023-06-22T06:22:55;101098.66;;;23.34;51.45
29371;BME280;16357;52.188;7.838;2023-06-22T06:25:22;101092.47;;;23.39;51.16
29371;BME280;16357;52.188;7.838;2023-06-22T06:27:51;101094.06;;;23.47;51.06
29371;BME280;16357;52.188;7.838;2023-06-22T06:30:18;101092.88;;;23.54;50.63
29371;BME280;16357;52.188;7.838;2023-06-22T06:32:46;101090.88;;;23.61;50.48
29371;BME280;16357;52.188;7.838;2023-06-22T06:35:14;101085.91;;;23.70;50.36
29371;BME280;16357;52.188;7.838;2023-06-22T06:37:43;101099.03;;;23.80;50.60
29371;BME280;16357;52.188;7.838;2023-06-22T06:40:12;101111.34;;;23.89;50.16
29371;BME280;16357;52.188;7.838;2023-06-22T06:42:41;101105.03;;;24.00;50.27
29371;BME280;16357;52.188;7.838;2023-06-22T06:45:20;101112.41;;;24.12;49.97
29371;BME280;16357;52.188;7.838;2023-06-22T06:47:50;101099.78;;;24.22;49.66
29371;BME280;16357;52.188;7.838;2023-06-22T06:50:17;101110.78;;;24.34;50.03
29371;BME280;16357;52.188;7.838;2023-06-22T06:52:44;101100.91;;;24.45;49.48
29371;BME280;16357;52.188;7.838;2023-06-22T06:55:11;101098.16;;;24.57;49.45
29371;BME280;16357;52.188;7.838;2023-06-22T06:57:39;101089.88;;;24.68;49.30
29371;BME280;16357;52.188;7.838;2023-06-22T07:00:07;101088.19;;;24.79;48.62
29371;BME280;16357;52.188;7.838;2023-06-22T07:02:43;101085.44;;;24.91;48.70
29371;BME280;16357;52.188;7.838;2023-06-22T07:05:11;101082.03;;;25.01;48.65
29371;BME280;16357;52.188;7.838;2023-06-22T07:07:38;101082.25;;;25.11;47.82
29371;BME280;16357;52.188;7.838;2023-06-22T07:10:06;101075.31;;;25.20;47.81
29371;BME280;16357;52.188;7.838;2023-06-22T07:12:33;101088.66;;;25.28;47.74
29371;BME280;16357;52.188;7.838;2023-06-22T07:15:07;101091.00;;;25.36;47.66
29371;BME280;16357;52.188;7.838;2023-06-22T07:17:35;101089.78;;;25.44;47.40
29371;BME280;16357;52.188;7.838;2023-06-22T07:20:03;101089.59;;;25.51;47.33
29371;BME280;16357;52.188;7.838;2023-06-22T07:22:36;101088.72;;;25.62;47.23
29371;BME280;16357;52.188;7.838;2023-06-22T07:25:03;101089.97;;;25.71;47.19
29371;BME280;16357;52.188;7.838;2023-06-22T07:27:39;101085.22;;;25.83;47.32
29371;BME280;16357;52.188;7.838;2023-06-22T07:30:09;101084.09;;;25.96;46.60
29371;BME280;16357;52.188;7.838;2023-06-22T07:32:36;101078.25;;;26.10;46.41
29371;BME280;16357;52.188;7.838;2023-06-22T07:35:03;101085.06;;;26.24;46.57
29371;BME280;16357;52.188;7.838;2023-06-22T07:37:30;101081.94;;;26.37;46.40
29371;BME280;16357;52.188;7.838;2023-06-22T07:39:59;101086.25;;;26.50;45.69
29371;BME280;16357;52.188;7.838;2023-06-22T07:42:26;101078.75;;;26.62;45.73
29371;BME280;16357;52.188;7.838;2023-06-22T07:44:53;101068.94;;;26.71;45.39
29371;BME280;16357;52.188;7.838;2023-06-22T07:47:20;101068.25;;;26.81;44.92
29371;BME280;16357;52.188;7.838;2023-06-22T07:49:51;101063.06;;;26.85;44.91
29371;BME280;16357;52.188;7.838;2023-06-22T07:52:18;101062.28;;;26.89;44.96
29371;BME280;16357;52.188;7.838;2023-06-22T07:54:44;101062.59;;;26.93;44.84
29371;BME280;16357;52.188;7.838;2023-06-22T07:57:11;101064.59;;;26.98;44.75
29371;BME280;16357;52.188;7.838;2023-06-22T07:59:37;101063.00;;;27.02;44.69
29371;BME280;16357;52.188;7.838;2023-06-22T08:02:05;101063.28;;;27.05;44.49
29371;BME280;16357;52.188;7.838;2023-06-22T08:04:31;101064.94;;;27.06;44.46
29371;BME280;16357;52.188;7.838;2023-06-22T08:07:00;101060.84;;;27.09;44.14
29371;BME280;16357;52.188;7.838;2023-06-22T08:09:28;101064.19;;;27.11;44.18
29371;BME280;16357;52.188;7.838;2023-06-22T08:11:55;101058.44;;;27.12;44.17
29371;BME280;16357;52.188;7.838;2023-06-22T08:14:25;101050.72;;;27.14;44.59
29371;BME280;16357;52.188;7.838;2023-06-22T08:16:51;101048.53;;;27.17;44.04
29371;BME280;16357;52.188;7.838;2023-06-22T08:19:18;101047.50;;;27.18;44.13
29371;BME280;16357;52.188;7.838;2023-06-22T08:21:44;101047.22;;;27.19;44.09
29371;BME280;16357;52.188;7.838;2023-06-22T08:24:11;101055.47;;;27.19;43.84
29371;BME280;16357;52.188;7.838;2023-06-22T08:26:37;101055.75;;;27.18;43.83
29371;BME280;16357;52.188;7.838;2023-06-22T08:29:04;101059.84;;;27.15;44.26
29371;BME280;16357;52.188;7.838;2023-06-22T08:31:31;101061.72;;;27.14;43.97
29371;BME280;16357;52.188;7.838;2023-06-22T08:34:01;101054.56;;;27.13;44.36
29371;BME280;16357;52.188;7.838;2023-06-22T08:36:27;101067.25;;;27.14;44.37
29371;BME280;16357;52.188;7.838;2023-06-22T08:38:59;101074.19;;;27.17;44.41
29371;BME280;16357;52.188;7.838;2023-06-22T08:41:29;101067.81;;;27.17;44.15
29371;BME280;16357;52.188;7.838;2023-06-22T08:43:56;101073.31;;;27.17;44.16
29371;BME280;16357;52.188;7.838;2023-06-22T08:46:22;101068.91;;;27.15;44.17
29371;BME280;16357;52.188;7.838;2023-06-22T08:48:56;101061.19;;;27.12;44.07
29371;BME280;16357;52.188;7.838;2023-06-22T08:51:24;101055.63;;;27.07;43.83
29371;BME280;16357;52.188;7.838;2023-06-22T08:53:50;101049.78;;;27.04;44.45
29371;BME280;16357;52.188;7.838;2023-06-22T08:56:16;101039.28;;;27.01;44.48
29371;BME280;16357;52.188;7.838;2023-06-22T08:58:44;101037.88;;;26.98;44.90
29371;BME280;16357;52.188;7.838;2023-06-22T09:01:13;101038.97;;;26.97;44.82
29371;BME280;16357;52.188;7.838;2023-06-22T09:03:42;101032.66;;;26.97;44.97
29371;BME280;16357;52.188;7.838;2023-06-22T09:06:09;101018.88;;;26.97;45.20
29371;BME280;16357;52.188;7.838;2023-06-22T09:08:36;101023.03;;;26.99;45.18
29371;BME280;16357;52.188;7.838;2023-06-22T09:11:02;101018.66;;;27.03;45.42
29371;BME280;16357;52.188;7.838;2023-06-22T09:13:30;101017.88;;;27.08;44.86
29371;BME280;16357;52.188;7.838;2023-06-22T09:15:57;101004.41;;;27.11;45.11
29371;BME280;16357;52.188;7.838;2023-06-22T09:18:24;101002.81;;;27.15;45.66
29371;BME280;16357;52.188;7.838;2023-06-22T09:20:50;101007.31;;;27.22;44.84
29371;BME280;16357;52.188;7.838;2023-06-22T09:23:17;101006.00;;;27.29;45.26
29371;BME280;16357;52.188;7.838;2023-06-22T09:25:43;101001.69;;;27.39;45.05
29371;BME280;16357;52.188;7.838;2023-06-22T09:28:10;101006.19;;;27.50;44.81
29371;BME280;16357;52.188;7.838;2023-06-22T09:30:36;101006.56;;;27.64;44.63
29371;BME280;16357;52.188;7.838;2023-06-22T09:33:03;100999.50;;;27.78;44.57
29371;BME280;16357;52.188;7.838;2023-06-22T09:35:29;100996.88;;;27.93;44.33
29371;BME280;16357;52.188;7.838;2023-06-22T09:37:56;101003.84;;;28.06;44.00
29371;BME280;16357;52.188;7.838;2023-06-22T09:40:22;100999.78;;;28.19;43.64
29371;BME280;16357;52.188;7.838;2023-06-22T09:42:48;101000.38;;;28.26;43.53
29371;BME280;16357;52.188;7.838;2023-06-22T09:45:15;101002.06;;;28.32;43.38
29371;BME280;16357;52.188;7.838;2023-06-22T09:47:42;101007.59;;;28.37;43.19
29371;BME280;16357;52.188;7.838;2023-06-22T09:50:09;101000.44;;;28.41;43.30
29371;BME280;16357;52.188;7.838;2023-06-22T09:52:36;100983.94;;;28.47;42.91
29371;BME280;16357;52.188;7.838;2023-06-22T09:55:06;100983.66;;;28.48;42.52
29371;BME280;16357;52.188;7.838;2023-06-22T09:57:33;100975.13;;;28.50;42.64
29371;BME280;16357;52.188;7.838;2023-06-22T09:59:59;100972.34;;;28.50;42.65
29371;BME280;16357;52.188;7.838;2023-06-22T10:02:26;100967.91;;;28.49;42.65
29371;BME280;16357;52.188;7.838;2023-06-22T10:04:52;100963.50;;;28.48;42.55
29371;BME280;16357;52.188;7.838;2023-06-22T10:07:19;100950.81;;;28.47;42.84
29371;BME280;16357;52.188;7.838;2023-06-22T10:09:45;100956.63;;;28.50;42.72
29371;BME280;16357;52.188;7.838;2023-06-22T10:12:12;100951.38;;;28.54;42.81
29371;BME280;16357;52.188;7.838;2023-06-22T10:14:38;100958.03;;;28.58;42.67
29371;BME280;16357;52.188;7.838;2023-06-22T10:17:05;100960.81;;;28.63;42.22
29371;BME280;16357;52.188;7.838;2023-06-22T10:19:33;100967.41;;;28.67;42.55
29371;BME280;16357;52.188;7.838;2023-06-22T10:21:59;100972.44;;;28.70;42.04
29371;BME280;16357;52.188;7.838;2023-06-22T10:24:26;100975.72;;;28.72;42.48
29371;BME280;16357;52.188;7.838;2023-06-22T10:26:52;100966.06;;;28.75;42.61
29371;BME280;16357;52.188;7.838;2023-06-22T10:29:20;100959.72;;;28.79;42.32
29371;BME280;16357;52.188;7.838;2023-06-22T10:31:46;100957.81;;;28.85;42.23
29371;BME280;16357;52.188;7.838;2023-06-22T10:34:12;100958.38;;;28.92;42.12
29371;BME280;16357;52.188;7.838;2023-06-22T10:36:39;100957.00;;;29.00;41.81
29371;BME280;16357;52.188;7.838;2023-06-22T10:39:05;100957.88;;;29.05;41.78
29371;BME280;16357;52.188;7.838;2023-06-22T10:41:32;100956.50;;;29.08;41.91
29371;BME280;16357;52.188;7.838;2023-06-22T10:43:59;100944.63;;;29.07;41.53
29371;BME280;16357;52.188;7.838;2023-06-22T10:46:25;100941.56;;;29.09;42.01
29371;BME280;16357;52.188;7.838;2023-06-22T10:48:52;100938.53;;;29.10;41.85
29371;BME280;16357;52.188;7.838;2023-06-22T10:51:20;100946.00;;;29.15;41.70
29371;BME280;16357;52.188;7.838;2023-06-22T10:53:47;100941.00;;;29.17;41.64
29371;BME280;16357;52.188;7.838;2023-06-22T10:56:13;100943.50;;;29.19;41.66
29371;BME280;16357;52.188;7.838;2023-06-22T10:58:40;100951.25;;;29.22;41.36
29371;BME280;16357;52.188;7.838;2023-06-22T11:01:06;100952.38;;;29.26;41.68
29371;BME280;16357;52.188;7.838;2023-06-22T11:03:33;100960.34;;;29.27;41.53
29371;BME280;16357;52.188;7.838;2023-06-22T11:06:00;100950.97;;;29.28;41.26
29371;BME280;16357;52.188;7.838;2023-06-22T11:08:26;100954.00;;;29.27;41.29
29371;BME280;16357;52.188;7.838;2023-06-22T11:10:53;100945.47;;;29.23;41.14
29371;BME280;16357;52.188;7.838;2023-06-22T11:13:19;100937.72;;;29.20;41.37
29371;BME280;16357;52.188;7.838;2023-06-22T11:15:46;100934.97;;;29.15;41.52
29371;BME280;16357;52.188;7.838;2023-06-22T11:18:15;100922.78;;;29.11;41.44
29371;BME280;16357;52.188;7.838;2023-06-22T11:20:42;100925.28;;;29.07;41.53
29371;BME280;16357;52.188;7.838;2023-06-22T11:23:08;100916.44;;;29.05;42.10
29371;BME280;16357;52.188;7.838;2023-06-22T11:25:35;100913.38;;;29.02;41.93
29371;BME280;16357;52.188;7.838;2023-06-22T11:28:02;100904.53;;;29.00;42.00
29371;BME280;16357;52.188;7.838;2023-06-22T11:30:29;100902.03;;;28.98;41.99
29371;BME280;16357;52.188;7.838;2023-06-22T11:32:58;100892.66;;;28.94;42.26
29371;BME280;16357;52.188;7.838;2023-06-22T11:35:25;100886.00;;;28.90;42.40
29371;BME280;16357;52.188;7.838;2023-06-22T11:37:52;100885.75;;;28.86;42.35
29371;BME280;16357;52.188;7.838;2023-06-22T11:40:18;100878.53;;;28.85;42.72
29371;BME280;16357;52.188;7.838;2023-06-22T11:42:45;100879.09;;;28.87;42.91
29371;BME280;16357;52.188;7.838;2023-06-22T11:45:11;100860.88;;;28.92;42.56
29371;BME280;16357;52.188;7.838;2023-06-22T11:47:38;100855.88;;;28.99;42.59
29371;BME280;16357;52.188;7.838;2023-06-22T11:50:06;100859.25;;;29.06;42.76
29371;BME280;16357;52.188;7.838;2023-06-22T11:52:34;100866.97;;;29.14;42.80
29371;BME280;16357;52.188;7.838;2023-06-22T11:55:02;100863.09;;;29.25;42.35
29371;BME280;16357;52.188;7.838;2023-06-22T11:57:35;100870.53;;;29.40;41.93
29371;BME280;16357;52.188;7.838;2023-06-22T12:00:05;100866.34;;;29.53;41.84
29371;BME280;16357;52.188;7.838;2023-06-22T12:02:40;100866.91;;;29.65;41.82
29371;BME280;16357;52.188;7.838;2023-06-22T12:05:07;100849.16;;;29.77;41.75
29371;BME280;16357;52.188;7.838;2023-06-22T12:07:34;100879.00;;;29.90;41.35
29371;BME280;16357;52.188;7.838;2023-06-22T12:10:01;100863.19;;;30.01;40.66
29371;BME280;16357;52.188;7.838;2023-06-22T12:12:28;100865.34;;;30.09;40.85
29371;BME280;16357;52.188;7.838;2023-06-22T12:14:54;100868.91;;;30.14;40.23
29371;BME280;16357;52.188;7.838;2023-06-22T12:17:20;100875.56;;;30.18;40.12
29371;BME280;16357;52.188;7.838;2023-06-22T12:19:47;100865.53;;;30.23;40.42
29371;BME280;16357;52.188;7.838;2023-06-22T12:22:13;100865.56;;;30.28;40.49
29371;BME280;16357;52.188;7.838;2023-06-22T12:24:40;100865.00;;;30.31;39.94
29371;BME280;16357;52.188;7.838;2023-06-22T12:27:06;100871.06;;;30.33;39.68
29371;BME280;16357;52.188;7.838;2023-06-22T12:29:32;100872.19;;;30.32;39.26
29371;BME280;16357;52.188;7.838;2023-06-22T12:31:59;100868.59;;;30.31;39.40
29371;BME280;16357;52.188;7.838;2023-06-22T12:34:25;100864.47;;;30.29;39.70
29371;BME280;16357;52.188;7.838;2023-06-22T12:36:52;100873.03;;;30.27;39.30
29371;BME280;16357;52.188;7.838;2023-06-22T12:39:20;100870.84;;;30.24;39.70
29371;BME280;16357;52.188;7.838;2023-06-22T12:41:47;100869.44;;;30.22;39.27
29371;BME280;16357;52.188;7.838;2023-06-22T12:44:13;100866.94;;;30.20;39.56
29371;BME280;16357;52.188;7.838;2023-06-22T12:46:40;100864.75;;;30.17;39.60
29371;BME280;16357;52.188;7.838;2023-06-22T12:49:06;100862.56;;;30.14;39.13
29371;BME280;16357;52.188;7.838;2023-06-22T12:51:33;100857.03;;;30.09;39.53
29371;BME280;16357;52.188;7.838;2023-06-22T12:54:00;100857.88;;;30.04;39.62